Time;durP1;ratioP1;P1;durP2;ratioP2;P2;SDS_P1;SDS_P2;PMS_P1;PMS_P2;Temp;Humidity;BMP_temperature;BMP_pressure;BME280_temperature;BME280_humidity;BME280_pressure;Samples;Min_cycle;Max_cycle;Signal;HPM_P1;HPM_P2
2022/11/09 00:01:37;;;;;;;7.05;3.33;;;;;;;;;;5034872;28;20059;-74
2022/11/09 00:04:04;;;;;;;8.23;3.50;;;;;;;;;;5050929;28;20071;-74
2022/11/09 00:06:30;;;;;;;9.23;3.63;;;;;;;;;;5051529;28;20045;-74
2022/11/09 00:08:56;;;;;;;10.25;3.95;;;;;;;;;;5050632;28;20041;-74
2022/11/09 00:11:23;;;;;;;7.47;4.35;;;;;;;;;;5051318;28;20049;-74
2022/11/09 00:13:49;;;;;;;8.80;3.90;;;;;;;;;;5050643;28;20052;-75
2022/11/09 00:16:17;;;;;;;7.10;4.20;;;;;;;;;;5034600;28;20041;-75
2022/11/09 00:18:47;;;;;;;11.80;4.30;;;;;;;;;;5051310;28;20043;-74
2022/11/09 00:21:17;;;;;;;10.32;4.93;;;;;;;;;;5050165;28;20045;-74
2022/11/09 00:23:44;;;;;;;12.13;4.80;;;;;;;;;;5039474;28;20481;-75
2022/11/09 00:26:11;;;;;;;11.98;5.03;;;;;;;;;;5051180;28;20102;-75
2022/11/09 00:28:37;;;;;;;10.50;4.30;;;;;;;;;;5046070;28;20041;-75
2022/11/09 00:31:05;;;;;;;10.38;4.38;;;;;;;;;;5041877;28;20044;-74
2022/11/09 00:33:31;;;;;;;11.40;4.22;;;;;;;;;;5033833;28;20033;-74
2022/11/09 00:35:57;;;;;;;8.70;4.03;;;;;;;;;;5050513;28;20041;-74
2022/11/09 00:38:23;;;;;;;6.68;3.50;;;;;;;;;;5050920;28;20040;-74
2022/11/09 00:40:49;;;;;;;7.60;3.45;;;;;;;;;;5050948;28;20481;-74
2022/11/09 00:43:15;;;;;;;8.25;3.33;;;;;;;;;;5051316;28;20508;-74
2022/11/09 00:45:42;;;;;;;8.18;3.25;;;;;;;;;;5050026;28;20037;-74
2022/11/09 00:48:08;;;;;;;9.30;3.22;;;;;;;;;;5050354;28;20345;-74
2022/11/09 00:50:34;;;;;;;14.77;3.40;;;;;;;;;;5050911;28;20037;-74
2022/11/09 00:53:00;;;;;;;11.35;2.97;;;;;;;;;;5050270;28;20095;-75
2022/11/09 00:55:26;;;;;;;11.65;3.58;;;;;;;;;;5050687;28;20033;-74
2022/11/09 00:57:52;;;;;;;9.10;3.03;;;;;;;;;;5033647;28;20039;-74
2022/11/09 01:00:19;;;;;;;6.72;3.00;;;;;;;;;;5017549;28;20049;-75
2022/11/09 01:02:46;;;;;;;10.95;3.30;;;;;;;;;;5033838;28;20055;-74
2022/11/09 01:05:12;;;;;;;12.18;3.75;;;;;;;;;;5050305;28;20559;-75
2022/11/09 01:07:38;;;;;;;15.25;3.25;;;;;;;;;;5050207;28;20098;-75
2022/11/09 01:10:05;;;;;;;10.40;3.10;;;;;;;;;;5033836;28;20183;-75
2022/11/09 01:12:31;;;;;;;8.40;2.92;;;;;;;;;;5033990;28;20044;-75
2022/11/09 01:14:57;;;;;;;8.90;3.50;;;;;;;;;;5050057;28;20076;-75
2022/11/09 01:17:24;;;;;;;12.85;2.95;;;;;;;;;;5050296;28;20060;-75
2022/11/09 01:19:50;;;;;;;9.93;2.85;;;;;;;;;;5051846;28;20033;-75
2022/11/09 01:22:17;;;;;;;9.93;3.10;;;;;;;;;;5033122;28;20048;-75
2022/11/09 01:24:44;;;;;;;9.55;2.42;;;;;;;;;;5049958;28;20052;-75
2022/11/09 01:27:10;;;;;;;7.68;2.85;;;;;;;;;;5083654;28;20375;-74
2022/11/09 01:29:36;;;;;;;10.75;2.67;;;;;;;;;;5051792;28;20064;-74
2022/11/09 01:32:02;;;;;;;7.25;2.40;;;;;;;;;;5034396;28;20040;-74
2022/11/09 01:34:28;;;;;;;9.00;2.58;;;;;;;;;;5054586;28;20120;-74
2022/11/09 01:36:54;;;;;;;11.95;3.00;;;;;;;;;;5053577;28;20033;-75
2022/11/09 01:39:20;;;;;;;8.45;3.22;;;;;;;;;;5054216;28;20060;-74
2022/11/09 01:41:47;;;;;;;7.57;2.78;;;;;;;;;;5056690;28;20036;-74
2022/11/09 01:44:18;;;;;;;9.32;2.25;;;;;;;;;;5057101;28;20048;-74
2022/11/09 01:46:50;;;;;;;11.45;2.63;;;;;;;;;;5057475;28;20044;-74
2022/11/09 01:49:24;;;;;;;9.05;2.33;;;;;;;;;;5053785;28;20041;-74
2022/11/09 01:51:52;;;;;;;11.85;3.38;;;;;;;;;;5072263;28;20068;-74
2022/11/09 01:54:20;;;;;;;9.18;2.55;;;;;;;;;;5107379;28;20446;-74
2022/11/09 01:56:48;;;;;;;7.65;2.45;;;;;;;;;;5057347;28;20545;-74
2022/11/09 01:59:17;;;;;;;9.48;2.60;;;;;;;;;;5066835;28;20040;-74
2022/11/09 02:01:43;;;;;;;8.80;2.50;;;;;;;;;;5070846;28;20056;-74
2022/11/09 02:04:12;;;;;;;10.93;2.90;;;;;;;;;;5056788;28;20048;-74
2022/11/09 02:06:38;;;;;;;16.08;4.35;;;;;;;;;;5075016;28;20121;-74
2022/11/09 02:09:09;;;;;;;8.30;2.58;;;;;;;;;;5068996;28;20037;-74
2022/11/09 02:11:36;;;;;;;6.97;2.50;;;;;;;;;;5073850;28;20051;-73
2022/11/09 02:14:02;;;;;;;7.70;2.58;;;;;;;;;;5063504;28;20037;-74
2022/11/09 02:16:29;;;;;;;8.13;2.33;;;;;;;;;;5073402;28;20047;-75
2022/11/09 02:18:57;;;;;;;11.55;3.20;;;;;;;;;;5070826;28;20036;-74
2022/11/09 02:21:25;;;;;;;8.88;2.40;;;;;;;;;;5064757;28;20044;-74
2022/11/09 02:23:51;;;;;;;6.43;2.10;;;;;;;;;;5059398;28;20048;-74
2022/11/09 02:26:26;;;;;;;7.85;2.25;;;;;;;;;;5073241;28;20048;-75
2022/11/09 02:28:54;;;;;;;9.13;2.38;;;;;;;;;;5063914;28;20037;-74
2022/11/09 02:31:20;;;;;;;10.52;2.50;;;;;;;;;;5042668;28;20524;-74
2022/11/09 02:33:49;;;;;;;13.25;2.30;;;;;;;;;;5073447;28;20493;-76
2022/11/09 02:36:15;;;;;;;11.45;2.40;;;;;;;;;;5067648;28;20504;-76
2022/11/09 02:38:41;;;;;;;7.38;2.15;;;;;;;;;;5073000;28;20045;-74
2022/11/09 02:41:08;;;;;;;10.05;2.53;;;;;;;;;;5061486;28;20056;-75
2022/11/09 02:43:36;;;;;;;16.05;3.08;;;;;;;;;;5072053;28;20047;-75
2022/11/09 02:46:02;;;;;;;11.45;2.30;;;;;;;;;;5072418;28;20040;-74
2022/11/09 02:48:28;;;;;;;15.32;2.55;;;;;;;;;;5065125;28;20120;-76
2022/11/09 02:50:54;;;;;;;7.75;2.28;;;;;;;;;;5058999;28;20522;-76
2022/11/09 02:53:20;;;;;;;10.40;2.22;;;;;;;;;;5071753;28;20121;-76
2022/11/09 02:55:46;;;;;;;8.10;2.20;;;;;;;;;;5072698;28;20127;-76
2022/11/09 02:58:12;;;;;;;7.88;2.15;;;;;;;;;;5072375;28;20033;-76
2022/11/09 03:00:39;;;;;;;12.40;2.10;;;;;;;;;;5068474;28;20061;-74
2022/11/09 03:03:05;;;;;;;11.93;2.33;;;;;;;;;;5037775;28;20048;-74
2022/11/09 03:05:31;;;;;;;9.65;2.47;;;;;;;;;;5071563;28;20033;-74
2022/11/09 03:08:01;;;;;;;9.82;2.28;;;;;;;;;;5072770;28;20052;-74
2022/11/09 03:10:27;;;;;;;10.32;2.05;;;;;;;;;;5072012;28;20128;-75
2022/11/09 03:12:53;;;;;;;10.02;2.20;;;;;;;;;;5047728;28;21242;-74
2022/11/09 03:15:20;;;;;;;10.60;2.80;;;;;;;;;;5070097;28;20043;-74
2022/11/09 03:17:46;;;;;;;8.93;1.90;;;;;;;;;;5056072;28;20493;-74
2022/11/09 03:20:12;;;;;;;9.75;2.53;;;;;;;;;;5071997;28;20151;-75
2022/11/09 03:22:38;;;;;;;9.13;1.98;;;;;;;;;;5046622;28;20504;-75
2022/11/09 03:25:04;;;;;;;9.40;2.58;;;;;;;;;;5063599;28;20082;-74
2022/11/09 03:27:30;;;;;;;10.85;2.10;;;;;;;;;;5049438;28;20497;-76
2022/11/09 03:29:56;;;;;;;14.40;2.40;;;;;;;;;;5064783;28;20507;-76
2022/11/09 03:32:22;;;;;;;8.23;1.98;;;;;;;;;;5055162;28;20397;-76
2022/11/09 03:34:50;;;;;;;10.80;2.55;;;;;;;;;;5062442;28;20401;-76
2022/11/09 03:37:17;;;;;;;8.93;2.00;;;;;;;;;;5057756;28;20405;-75
2022/11/09 03:39:43;;;;;;;12.02;2.13;;;;;;;;;;5061350;28;20045;-74
2022/11/09 03:42:09;;;;;;;11.82;2.08;;;;;;;;;;5054907;28;20046;-74
2022/11/09 03:44:35;;;;;;;10.85;2.40;;;;;;;;;;5060987;28;20045;-74
2022/11/09 03:47:01;;;;;;;8.65;1.90;;;;;;;;;;5055086;28;20044;-74
2022/11/09 03:49:27;;;;;;;8.60;2.47;;;;;;;;;;5071212;28;20142;-74
2022/11/09 03:51:53;;;;;;;7.38;2.08;;;;;;;;;;5057753;28;20044;-74
2022/11/09 03:54:19;;;;;;;10.70;2.17;;;;;;;;;;5037096;28;20045;-74
2022/11/09 03:56:45;;;;;;;10.30;2.13;;;;;;;;;;5053184;28;20554;-74
2022/11/09 03:59:11;;;;;;;11.60;2.13;;;;;;;;;;5071498;28;20525;-74
2022/11/09 04:01:37;;;;;;;12.57;2.65;;;;;;;;;;5071679;28;20381;-74
2022/11/09 04:04:04;;;;;;;12.30;2.67;;;;;;;;;;5063353;28;20386;-74
2022/11/09 04:06:30;;;;;;;6.88;1.83;;;;;;;;;;5065957;28;20045;-74
2022/11/09 04:08:56;;;;;;;12.20;2.65;;;;;;;;;;5071375;28;20040;-74
2022/11/09 04:11:22;;;;;;;8.93;2.30;;;;;;;;;;5054257;28;20040;-74
2022/11/09 04:13:48;;;;;;;10.43;2.80;;;;;;;;;;5054576;28;20048;-74
2022/11/09 04:16:14;;;;;;;8.02;2.72;;;;;;;;;;5054661;28;20045;-74
2022/11/09 04:18:40;;;;;;;9.25;2.22;;;;;;;;;;5069034;28;20119;-74
2022/11/09 04:21:07;;;;;;;11.02;2.40;;;;;;;;;;5071197;28;20071;-74
2022/11/09 04:23:33;;;;;;;8.48;2.33;;;;;;;;;;5054203;28;20059;-74
2022/11/09 04:25:59;;;;;;;12.02;2.63;;;;;;;;;;5067533;28;20036;-74
2022/11/09 04:28:25;;;;;;;12.52;2.33;;;;;;;;;;5046281;28;20489;-74
2022/11/09 04:30:52;;;;;;;11.07;2.30;;;;;;;;;;5070800;28;20051;-76
2022/11/09 04:33:18;;;;;;;7.88;2.40;;;;;;;;;;5070697;28;20040;-75
2022/11/09 04:35:44;;;;;;;9.65;3.45;;;;;;;;;;5066881;28;20064;-76
2022/11/09 04:38:14;;;;;;;8.77;2.33;;;;;;;;;;5061031;28;20043;-77
2022/11/09 04:40:40;;;;;;;8.88;2.47;;;;;;;;;;5067136;28;20071;-76
2022/11/09 04:43:07;;;;;;;9.57;2.83;;;;;;;;;;5059402;28;20044;-76
2022/11/09 04:45:34;;;;;;;10.23;2.47;;;;;;;;;;5070461;28;20650;-76
2022/11/09 04:48:01;;;;;;;10.48;2.88;;;;;;;;;;5059051;28;20066;-76
2022/11/09 04:50:27;;;;;;;13.18;2.30;;;;;;;;;;5069454;28;20037;-77
2022/11/09 04:52:53;;;;;;;9.07;2.28;;;;;;;;;;5104798;28;20529;-76
2022/11/09 04:55:19;;;;;;;6.72;2.20;;;;;;;;;;5054143;28;20447;-76
2022/11/09 04:57:45;;;;;;;12.05;2.55;;;;;;;;;;5041850;28;20037;-76
2022/11/09 05:00:12;;;;;;;13.07;2.25;;;;;;;;;;5064575;28;20053;-76
2022/11/09 05:02:38;;;;;;;9.15;2.53;;;;;;;;;;5044014;28;20563;-76
2022/11/09 05:05:04;;;;;;;11.73;2.60;;;;;;;;;;5069758;28;20037;-76
2022/11/09 05:07:30;;;;;;;14.60;2.35;;;;;;;;;;5047343;28;20036;-76
2022/11/09 05:09:56;;;;;;;10.00;2.17;;;;;;;;;;5066222;28;20115;-76
2022/11/09 05:12:22;;;;;;;10.13;2.42;;;;;;;;;;5068442;28;20041;-76
2022/11/09 05:14:48;;;;;;;10.82;2.30;;;;;;;;;;5057716;28;20097;-76
2022/11/09 05:17:14;;;;;;;7.03;2.08;;;;;;;;;;5040993;28;20044;-76
2022/11/09 05:19:41;;;;;;;10.63;1.95;;;;;;;;;;5062695;28;20175;-76
2022/11/09 05:24:51;;;;;;;11.65;2.40;;;;;;;;;;5068058;28;20045;-76
2022/11/09 05:27:17;;;;;;;10.95;2.65;;;;;;;;;;5068651;28;20036;-76
2022/11/09 05:29:43;;;;;;;10.10;2.35;;;;;;;;;;5046593;28;20078;-76
2022/11/09 05:32:09;;;;;;;11.52;2.40;;;;;;;;;;5070223;28;20052;-76
2022/11/09 05:34:35;;;;;;;9.82;2.40;;;;;;;;;;5059517;28;20117;-76
2022/11/09 05:37:01;;;;;;;9.70;2.40;;;;;;;;;;5055188;28;20033;-75
2022/11/09 05:39:28;;;;;;;11.90;2.40;;;;;;;;;;5057288;28;20470;-76
2022/11/09 05:41:54;;;;;;;9.85;2.30;;;;;;;;;;5058714;28;20051;-77
2022/11/09 05:44:20;;;;;;;11.70;2.35;;;;;;;;;;5069030;28;20068;-76
2022/11/09 05:46:46;;;;;;;13.88;2.47;;;;;;;;;;5059735;28;20493;-76
2022/11/09 05:49:12;;;;;;;12.35;2.33;;;;;;;;;;5053157;28;20072;-76
2022/11/09 05:51:38;;;;;;;7.40;2.38;;;;;;;;;;5056150;28;20032;-76
2022/11/09 05:54:04;;;;;;;16.02;2.65;;;;;;;;;;5070315;28;20119;-77
2022/11/09 05:56:30;;;;;;;10.02;2.15;;;;;;;;;;5034137;28;20059;-76
2022/11/09 05:58:56;;;;;;;8.82;2.42;;;;;;;;;;5059162;28;20040;-76
2022/11/09 06:01:22;;;;;;;9.60;2.60;;;;;;;;;;5053299;28;20045;-76
2022/11/09 06:03:49;;;;;;;10.27;2.40;;;;;;;;;;5056102;28;20052;-76
2022/11/09 06:06:16;;;;;;;7.72;2.03;;;;;;;;;;5046818;28;20044;-76
2022/11/09 06:08:42;;;;;;;9.05;2.00;;;;;;;;;;5040624;28;20102;-76
2022/11/09 06:11:10;;;;;;;8.40;2.20;;;;;;;;;;5053755;28;20048;-76
2022/11/09 06:13:36;;;;;;;13.75;2.08;;;;;;;;;;5069476;28;20062;-76
2022/11/09 06:16:04;;;;;;;11.85;2.30;;;;;;;;;;5056452;28;20037;-76
2022/11/09 06:18:31;;;;;;;9.10;2.22;;;;;;;;;;5056893;28;20087;-75
2022/11/09 06:20:58;;;;;;;12.43;2.03;;;;;;;;;;5075128;28;20029;-76
2022/11/09 06:23:24;;;;;;;8.45;2.53;;;;;;;;;;5073334;28;20052;-75
2022/11/09 06:25:51;;;;;;;8.38;1.85;;;;;;;;;;5066988;28;20037;-75
2022/11/09 06:28:18;;;;;;;13.75;2.10;;;;;;;;;;5060607;28;20115;-75
2022/11/09 06:30:44;;;;;;;8.05;1.90;;;;;;;;;;5071626;28;20040;-75
2022/11/09 06:33:10;;;;;;;14.27;2.20;;;;;;;;;;5073443;28;20048;-76
2022/11/09 06:35:36;;;;;;;10.90;2.00;;;;;;;;;;5073142;28;20052;-76
2022/11/09 06:38:02;;;;;;;10.38;1.83;;;;;;;;;;5061628;28;20044;-76
2022/11/09 06:40:32;;;;;;;14.63;2.05;;;;;;;;;;5054018;28;20036;-74
2022/11/09 06:42:58;;;;;;;11.68;2.05;;;;;;;;;;5073040;28;20080;-74
2022/11/09 06:45:25;;;;;;;8.48;2.10;;;;;;;;;;5073397;28;20501;-74
2022/11/09 06:47:54;;;;;;;13.02;1.70;;;;;;;;;;5072381;28;20097;-74
2022/11/09 06:50:20;;;;;;;8.70;1.77;;;;;;;;;;5060727;28;20424;-74
2022/11/09 06:52:46;;;;;;;12.23;2.05;;;;;;;;;;5072397;28;20049;-73
2022/11/09 06:55:12;;;;;;;9.27;1.75;;;;;;;;;;5073089;28;20040;-73
2022/11/09 06:57:38;;;;;;;8.90;2.42;;;;;;;;;;5072296;28;20040;-74
2022/11/09 07:00:04;;;;;;;8.75;1.73;;;;;;;;;;5067948;28;20045;-74
2022/11/09 07:02:31;;;;;;;13.32;2.70;;;;;;;;;;5053595;28;20041;-74
2022/11/09 07:04:57;;;;;;;11.00;1.95;;;;;;;;;;5052240;28;20106;-75
2022/11/09 07:07:23;;;;;;;10.88;2.17;;;;;;;;;;5056255;28;20263;-75
2022/11/09 07:09:49;;;;;;;7.45;1.98;;;;;;;;;;5072119;28;20049;-74
2022/11/09 07:12:15;;;;;;;9.40;2.33;;;;;;;;;;5044714;28;20580;-74
2022/11/09 07:14:41;;;;;;;12.13;1.90;;;;;;;;;;5040472;28;20045;-74
2022/11/09 07:17:07;;;;;;;8.15;1.73;;;;;;;;;;5057710;28;20036;-74
2022/11/09 07:19:33;;;;;;;10.90;2.00;;;;;;;;;;5052657;28;20063;-74
2022/11/09 07:21:59;;;;;;;9.48;1.90;;;;;;;;;;5043299;28;20040;-74
2022/11/09 07:24:25;;;;;;;13.00;2.05;;;;;;;;;;5047582;28;20044;-74
2022/11/09 07:26:51;;;;;;;9.93;1.95;;;;;;;;;;5042949;28;20101;-74
2022/11/09 07:29:17;;;;;;;8.77;2.13;;;;;;;;;;5042291;28;20044;-74
2022/11/09 07:31:43;;;;;;;10.27;1.90;;;;;;;;;;5071579;28;20493;-74
2022/11/09 07:34:09;;;;;;;7.68;1.70;;;;;;;;;;5055672;28;20517;-75
2022/11/09 07:36:35;;;;;;;9.93;2.28;;;;;;;;;;5061497;28;20511;-74
2022/11/09 07:39:02;;;;;;;10.18;2.17;;;;;;;;;;5053091;28;20393;-75
2022/11/09 07:41:28;;;;;;;8.75;1.85;;;;;;;;;;5069751;28;20167;-75
2022/11/09 07:43:54;;;;;;;10.05;2.25;;;;;;;;;;5040429;28;20044;-75
2022/11/09 07:46:20;;;;;;;9.68;1.88;;;;;;;;;;5033902;28;20059;-74
2022/11/09 07:48:46;;;;;;;8.57;1.80;;;;;;;;;;5051592;28;20044;-75
2022/11/09 07:51:12;;;;;;;10.68;2.90;;;;;;;;;;5061841;28;20033;-74
2022/11/09 07:53:39;;;;;;;9.15;2.20;;;;;;;;;;5072392;28;20044;-74
2022/11/09 07:56:05;;;;;;;7.15;1.90;;;;;;;;;;5072247;28;20044;-75
2022/11/09 07:58:33;;;;;;;8.27;1.60;;;;;;;;;;5055424;28;20064;-75
2022/11/09 08:00:59;;;;;;;8.88;1.80;;;;;;;;;;5071181;28;20040;-75
2022/11/09 08:03:25;;;;;;;10.15;2.45;;;;;;;;;;5071658;28;20072;-75
2022/11/09 08:05:51;;;;;;;9.32;1.90;;;;;;;;;;5071785;28;20078;-77
2022/11/09 08:08:17;;;;;;;9.60;1.77;;;;;;;;;;5072316;28;20036;-77
2022/11/09 08:10:50;;;;;;;9.77;1.88;;;;;;;;;;5071299;28;20048;-77
2022/11/09 08:13:16;;;;;;;8.48;1.70;;;;;;;;;;5055886;28;20045;-78
2022/11/09 08:15:42;;;;;;;10.02;2.03;;;;;;;;;;5031184;28;20037;-78
2022/11/09 08:18:12;;;;;;;10.32;2.15;;;;;;;;;;5056948;28;20082;-78
2022/11/09 08:20:39;;;;;;;7.10;1.55;;;;;;;;;;5068317;28;20499;-78
2022/11/09 08:23:05;;;;;;;8.70;1.90;;;;;;;;;;5054675;28;20040;-78
2022/11/09 08:25:35;;;;;;;7.00;1.73;;;;;;;;;;5052695;28;20047;-78
2022/11/09 08:28:02;;;;;;;8.80;1.75;;;;;;;;;;5067860;28;20049;-78
2022/11/09 08:30:28;;;;;;;8.77;2.00;;;;;;;;;;5068157;28;20508;-78
2022/11/09 08:32:54;;;;;;;11.48;2.10;;;;;;;;;;5069476;28;20121;-79
2022/11/09 08:35:22;;;;;;;13.85;2.03;;;;;;;;;;5065830;28;20115;-79
2022/11/09 08:37:49;;;;;;;10.07;2.20;;;;;;;;;;5071044;28;20040;-79
2022/11/09 08:40:17;;;;;;;7.72;1.63;;;;;;;;;;5054697;28;20388;-79
2022/11/09 08:42:43;;;;;;;11.55;2.58;;;;;;;;;;5055854;28;20461;-78
2022/11/09 08:45:09;;;;;;;9.00;1.75;;;;;;;;;;5060635;28;20105;-77
2022/11/09 08:47:36;;;;;;;10.52;2.13;;;;;;;;;;5046005;28;20064;-77
2022/11/09 08:50:03;;;;;;;10.68;2.28;;;;;;;;;;5063551;28;20036;-77
2022/11/09 08:52:29;;;;;;;11.45;1.88;;;;;;;;;;5059625;28;20032;-77
2022/11/09 08:54:56;;;;;;;13.70;2.10;;;;;;;;;;5054159;28;20439;-77
2022/11/09 08:57:23;;;;;;;10.13;2.08;;;;;;;;;;5052952;28;20036;-77
2022/11/09 08:59:49;;;;;;;10.60;2.35;;;;;;;;;;5042870;28;20041;-78
2022/11/09 09:02:15;;;;;;;9.30;1.90;;;;;;;;;;5041308;28;20056;-77
2022/11/09 09:04:42;;;;;;;10.02;2.20;;;;;;;;;;5038261;28;20575;-75
2022/11/09 09:07:08;;;;;;;10.68;2.20;;;;;;;;;;5034350;28;20050;-75
2022/11/09 09:09:34;;;;;;;11.93;2.40;;;;;;;;;;5032068;28;20037;-75
2022/11/09 09:12:00;;;;;;;8.02;1.90;;;;;;;;;;5058684;28;20101;-75
2022/11/09 09:14:26;;;;;;;7.85;1.98;;;;;;;;;;5032994;28;20041;-75
2022/11/09 09:16:52;;;;;;;9.10;1.90;;;;;;;;;;5059983;28;20048;-75
2022/11/09 09:19:18;;;;;;;7.38;2.25;;;;;;;;;;5062458;28;20033;-75
2022/11/09 09:21:44;;;;;;;8.38;2.35;;;;;;;;;;5036304;28;20160;-75
2022/11/09 09:24:11;;;;;;;11.25;2.53;;;;;;;;;;5032755;28;20549;-75
2022/11/09 09:26:37;;;;;;;9.55;2.13;;;;;;;;;;5043839;28;20498;-75
2022/11/09 09:29:03;;;;;;;11.95;2.67;;;;;;;;;;5020206;28;20524;-76
2022/11/09 09:31:29;;;;;;;9.57;2.22;;;;;;;;;;5043909;28;20044;-78
2022/11/09 09:33:55;;;;;;;7.97;2.20;;;;;;;;;;5060468;28;20040;-78
2022/11/09 09:36:22;;;;;;;10.65;2.55;;;;;;;;;;5051203;28;20121;-78
2022/11/09 09:38:52;;;;;;;11.90;2.80;;;;;;;;;;5050856;28;20114;-77
2022/11/09 09:41:28;;;;;;;12.98;2.78;;;;;;;;;;5060653;28;20091;-78
2022/11/09 09:43:56;;;;;;;10.95;2.92;;;;;;;;;;5036900;28;20492;-78
2022/11/09 09:46:29;;;;;;;10.05;2.25;;;;;;;;;;5064008;28;20091;-80
2022/11/09 09:48:58;;;;;;;8.85;2.47;;;;;;;;;;5050531;28;20079;-78
2022/11/09 09:51:27;;;;;;;9.60;2.65;;;;;;;;;;5066586;28;20542;-79
2022/11/09 09:53:56;;;;;;;13.20;2.40;;;;;;;;;;5071664;28;20047;-78
2022/11/09 09:56:49;;;;;;;11.00;2.67;;;;;;;;;;5059799;28;20490;-78
2022/11/09 09:59:19;;;;;;;12.45;2.60;;;;;;;;;;5084652;28;20049;-78
2022/11/09 10:01:47;;;;;;;9.10;2.42;;;;;;;;;;5061265;28;20052;-79
2022/11/09 10:04:21;;;;;;;9.82;2.60;;;;;;;;;;5065754;28;20527;-79
2022/11/09 10:06:59;;;;;;;10.75;2.85;;;;;;;;;;5057554;28;20045;-79
2022/11/09 10:09:25;;;;;;;8.20;2.60;;;;;;;;;;5051602;28;20033;-77
2022/11/09 10:12:01;;;;;;;9.27;2.88;;;;;;;;;;5071504;28;20548;-77
2022/11/09 10:14:37;;;;;;;12.77;2.80;;;;;;;;;;5061212;28;20049;-75
2022/11/09 10:17:29;;;;;;;11.20;3.05;;;;;;;;;;5056116;28;20032;-77
2022/11/09 10:20:01;;;;;;;11.68;3.03;;;;;;;;;;5042491;28;20040;-76
2022/11/09 10:22:28;;;;;;;12.35;2.90;;;;;;;;;;5048137;28;20028;-77
2022/11/09 10:25:11;;;;;;;9.35;2.60;;;;;;;;;;5044381;28;20048;-78
2022/11/09 10:27:42;;;;;;;8.57;2.40;;;;;;;;;;5073907;28;20048;-78
2022/11/09 10:30:14;;;;;;;8.65;2.60;;;;;;;;;;5081399;28;20748;-77
2022/11/09 10:32:41;;;;;;;15.70;3.25;;;;;;;;;;5054173;28;20048;-77
2022/11/09 10:35:07;;;;;;;9.77;3.20;;;;;;;;;;5066273;28;20060;-77
2022/11/09 10:37:39;;;;;;;11.20;2.85;;;;;;;;;;5053659;28;20040;-77
2022/11/09 10:40:11;;;;;;;8.38;2.63;;;;;;;;;;5053769;28;20079;-78
2022/11/09 10:42:37;;;;;;;8.30;2.50;;;;;;;;;;5056431;28;20119;-77
2022/11/09 10:45:26;;;;;;;8.90;2.92;;;;;;;;;;5038308;28;20417;-78
2022/11/09 10:47:52;;;;;;;9.20;2.67;;;;;;;;;;5054921;28;20533;-77
2022/11/09 10:50:33;;;;;;;8.77;2.53;;;;;;;;;;5054797;28;20045;-77
2022/11/09 10:53:12;;;;;;;13.18;2.90;;;;;;;;;;5053723;28;20045;-77
2022/11/09 10:55:49;;;;;;;9.43;3.22;;;;;;;;;;5026674;28;20033;-76
2022/11/09 10:58:34;;;;;;;10.88;2.80;;;;;;;;;;5086617;28;20044;-78
2022/11/09 11:01:05;;;;;;;12.38;3.03;;;;;;;;;;5053500;28;20124;-77
2022/11/09 11:03:36;;;;;;;12.10;3.30;;;;;;;;;;5054489;28;20076;-77
2022/11/09 11:06:15;;;;;;;10.85;3.08;;;;;;;;;;5056627;28;20123;-76
2022/11/09 11:08:43;;;;;;;12.38;3.40;;;;;;;;;;5064844;28;20037;-76
2022/11/09 11:11:18;;;;;;;10.52;3.22;;;;;;;;;;5063541;28;20131;-77
2022/11/09 11:13:45;;;;;;;9.85;3.42;;;;;;;;;;5047579;28;20051;-77
2022/11/09 11:16:15;;;;;;;10.88;3.45;;;;;;;;;;5065540;28;20110;-76
2022/11/09 11:18:45;;;;;;;11.88;3.28;;;;;;;;;;5022619;28;20036;-77
2022/11/09 11:21:16;;;;;;;11.63;3.40;;;;;;;;;;5057436;28;20041;-75
2022/11/09 11:23:42;;;;;;;8.85;3.25;;;;;;;;;;5057058;28;20079;-75
2022/11/09 11:26:17;;;;;;;12.07;3.50;;;;;;;;;;5060479;28;20470;-77
2022/11/09 11:28:45;;;;;;;13.93;3.72;;;;;;;;;;5057976;28;20063;-75
2022/11/09 11:31:14;;;;;;;11.82;3.88;;;;;;;;;;5052525;28;20366;-75
2022/11/09 11:33:40;;;;;;;13.80;3.85;;;;;;;;;;5059561;28;20072;-75
2022/11/09 11:36:12;;;;;;;12.48;3.72;;;;;;;;;;5052776;28;20036;-76
2022/11/09 11:38:57;;;;;;;11.55;3.67;;;;;;;;;;5036228;28;20037;-77
2022/11/09 11:41:23;;;;;;;11.75;3.50;;;;;;;;;;5050789;28;20068;-75
2022/11/09 11:43:49;;;;;;;14.00;3.42;;;;;;;;;;5049472;28;20052;-76
2022/11/09 11:46:21;;;;;;;11.75;3.83;;;;;;;;;;5049036;28;20052;-76
2022/11/09 11:49:14;;;;;;;14.85;3.55;;;;;;;;;;5034683;28;20132;-76
2022/11/09 11:51:52;;;;;;;12.75;3.60;;;;;;;;;;5048818;28;20140;-75
2022/11/09 11:54:24;;;;;;;12.77;3.92;;;;;;;;;;5050945;28;20491;-76
2022/11/09 11:57:06;;;;;;;9.88;3.22;;;;;;;;;;5097220;28;20041;-75
2022/11/09 11:59:46;;;;;;;11.55;3.70;;;;;;;;;;5052985;28;20116;-76
2022/11/09 12:02:19;;;;;;;12.13;3.88;;;;;;;;;;5034217;28;20034;-75
2022/11/09 12:04:59;;;;;;;9.75;3.17;;;;;;;;;;5044722;28;20127;-75
2022/11/09 12:07:31;;;;;;;12.93;3.40;;;;;;;;;;5061132;28;20040;-76
2022/11/09 12:09:57;;;;;;;9.02;2.80;;;;;;;;;;5056977;28;20456;-76
2022/11/09 12:12:42;;;;;;;13.38;3.55;;;;;;;;;;5051906;28;20537;-76
2022/11/09 12:15:19;;;;;;;8.98;3.08;;;;;;;;;;5036001;28;20498;-75
2022/11/09 12:17:52;;;;;;;12.90;2.70;;;;;;;;;;5050912;28;20048;-75
2022/11/09 12:20:30;;;;;;;9.45;2.30;;;;;;;;;;5054627;28;20048;-75
2022/11/09 12:23:15;;;;;;;8.98;2.45;;;;;;;;;;5063062;28;20497;-75
2022/11/09 12:25:46;;;;;;;10.32;2.65;;;;;;;;;;5051994;28;20120;-75
2022/11/09 12:28:28;;;;;;;7.13;2.17;;;;;;;;;;5051830;28;20091;-76
2022/11/09 12:30:55;;;;;;;11.48;2.20;;;;;;;;;;5071604;28;20045;-75
2022/11/09 12:33:39;;;;;;;10.73;1.98;;;;;;;;;;5046620;28;20058;-75
2022/11/09 12:36:28;;;;;;;10.43;2.42;;;;;;;;;;5058720;28;20041;-76
2022/11/09 12:38:54;;;;;;;8.10;2.03;;;;;;;;;;5048791;28;20045;-75
2022/11/09 12:41:22;;;;;;;8.25;2.00;;;;;;;;;;5059697;28;20032;-75
2022/11/09 12:44:03;;;;;;;10.98;2.70;;;;;;;;;;5071899;28;20040;-75
2022/11/09 12:46:33;;;;;;;8.45;2.03;;;;;;;;;;5063715;28;20494;-75
2022/11/09 12:49:04;;;;;;;6.82;2.05;;;;;;;;;;5048796;28;20040;-75
2022/11/09 12:51:30;;;;;;;6.15;1.70;;;;;;;;;;5053343;28;20048;-76
2022/11/09 12:53:57;;;;;;;8.18;1.92;;;;;;;;;;5061374;28;20040;-75
2022/11/09 12:56:26;;;;;;;6.93;1.70;;;;;;;;;;5057385;28;20068;-75
2022/11/09 12:59:12;;;;;;;6.18;2.00;;;;;;;;;;5062889;28;20045;-75
2022/11/09 13:01:39;;;;;;;7.18;1.75;;;;;;;;;;5064262;28;20037;-75
2022/11/09 13:04:05;;;;;;;9.18;1.98;;;;;;;;;;5060087;28;20135;-76
2022/11/09 13:06:32;;;;;;;4.90;1.67;;;;;;;;;;5056652;28;20068;-75
2022/11/09 13:08:58;;;;;;;6.38;1.77;;;;;;;;;;5046690;28;20128;-76
2022/11/09 13:11:41;;;;;;;8.02;1.80;;;;;;;;;;5044260;28;20041;-75
2022/11/09 13:14:24;;;;;;;7.97;1.85;;;;;;;;;;5047163;28;20048;-75
2022/11/09 13:16:51;;;;;;;11.23;1.85;;;;;;;;;;5039130;28;20041;-75
2022/11/09 13:19:39;;;;;;;6.60;1.35;;;;;;;;;;5072690;28;20040;-75
2022/11/09 13:22:11;;;;;;;7.85;1.40;;;;;;;;;;5034636;28;20064;-75
2022/11/09 13:24:51;;;;;;;5.93;1.52;;;;;;;;;;5050702;28;20037;-74
2022/11/09 13:27:47;;;;;;;5.63;1.23;;;;;;;;;;5050576;28;20033;-75
2022/11/09 13:30:27;;;;;;;6.05;1.20;;;;;;;;;;5027776;28;20417;-74
2022/11/09 13:33:05;;;;;;;3.67;0.98;;;;;;;;;;5062438;28;20113;-74
2022/11/09 13:35:40;;;;;;;5.50;1.17;;;;;;;;;;5092272;28;20073;-75
2022/11/09 13:38:17;;;;;;;5.78;1.20;;;;;;;;;;5063732;28;20047;-75
2022/11/09 13:41:09;;;;;;;3.80;1.10;;;;;;;;;;5041114;28;20040;-75
2022/11/09 13:43:37;;;;;;;5.70;1.25;;;;;;;;;;5044546;28;20056;-75
2022/11/09 13:46:21;;;;;;;4.25;0.85;;;;;;;;;;5050688;28;20408;-75
2022/11/09 13:48:54;;;;;;;5.25;1.10;;;;;;;;;;5051442;28;20041;-76
2022/11/09 13:51:36;;;;;;;4.60;1.33;;;;;;;;;;5106087;28;20041;-75
2022/11/09 13:54:03;;;;;;;3.17;1.27;;;;;;;;;;5065170;28;20091;-75
2022/11/09 13:56:30;;;;;;;3.80;1.20;;;;;;;;;;5055697;28;20123;-75
2022/11/09 13:59:15;;;;;;;5.53;1.30;;;;;;;;;;5054849;28;20041;-75
2022/11/09 14:01:46;;;;;;;6.55;1.65;;;;;;;;;;5066646;28;20397;-76
2022/11/09 14:04:29;;;;;;;5.68;1.35;;;;;;;;;;5064563;28;20488;-75
2022/11/09 14:07:04;;;;;;;4.97;1.35;;;;;;;;;;5042950;28;20044;-75
2022/11/09 14:09:40;;;;;;;7.05;1.52;;;;;;;;;;5074427;28;20489;-75
2022/11/09 14:12:26;;;;;;;4.82;1.70;;;;;;;;;;5070011;28;20052;-74
2022/11/09 14:14:58;;;;;;;7.35;1.83;;;;;;;;;;5007473;28;20049;-75
2022/11/09 14:17:33;;;;;;;8.85;2.00;;;;;;;;;;5040440;28;20036;-74
2022/11/09 14:20:18;;;;;;;8.17;2.20;;;;;;;;;;5056818;28;20458;-74
2022/11/09 14:22:44;;;;;;;9.43;1.88;;;;;;;;;;5068744;28;20144;-76
2022/11/09 14:25:13;;;;;;;7.18;2.05;;;;;;;;;;5054865;28;20440;-74
2022/11/09 14:27:45;;;;;;;7.57;2.65;;;;;;;;;;5041539;28;20044;-75
2022/11/09 14:30:23;;;;;;;7.22;1.98;;;;;;;;;;5048779;28;20040;-74
2022/11/09 14:32:52;;;;;;;10.00;2.45;;;;;;;;;;5054894;28;20581;-74
2022/11/09 14:35:24;;;;;;;9.10;2.17;;;;;;;;;;5063392;28;20119;-74
2022/11/09 14:37:50;;;;;;;9.10;2.40;;;;;;;;;;5068520;28;20382;-74
2022/11/09 14:40:18;;;;;;;11.25;2.35;;;;;;;;;;5065135;28;20037;-74
2022/11/09 14:42:56;;;;;;;11.52;2.40;;;;;;;;;;5042675;28;20040;-74
2022/11/09 14:45:23;;;;;;;7.05;2.25;;;;;;;;;;5055630;28;20033;-74
2022/11/09 14:47:50;;;;;;;9.85;2.63;;;;;;;;;;5065940;28;20056;-74
2022/11/09 14:50:27;;;;;;;6.90;2.33;;;;;;;;;;5065241;28;20043;-73